createdAt,value
2023-09-02T00:01:54.760Z,6.63
2023-09-02T00:04:25.283Z,6.00
2023-09-02T00:06:55.829Z,6.40
2023-09-02T00:09:26.339Z,5.60
2023-09-02T00:11:59.609Z,5.53
2023-09-02T00:14:30.109Z,6.30
2023-09-02T00:17:00.714Z,5.90
2023-09-02T00:19:31.351Z,6.70
2023-09-02T00:22:01.923Z,5.27
2023-09-02T00:24:32.403Z,5.63
2023-09-02T00:27:05.500Z,6.37
2023-09-02T00:29:36.036Z,5.90
2023-09-02T00:32:07.026Z,5.60
2023-09-02T00:34:38.149Z,5.17
2023-09-02T00:37:08.811Z,5.63
2023-09-02T00:39:39.342Z,4.97
2023-09-02T00:42:14.409Z,4.63
2023-09-02T00:44:44.994Z,6.20
2023-09-02T00:47:16.153Z,5.80
2023-09-02T00:49:46.767Z,6.60
2023-09-02T00:52:17.336Z,7.03
2023-09-02T00:54:47.920Z,6.30
2023-09-02T00:57:21.260Z,5.47
2023-09-02T00:59:51.829Z,5.27
2023-09-02T01:02:22.710Z,5.40
2023-09-02T01:04:53.643Z,5.70
2023-09-02T01:07:24.621Z,5.47
2023-09-02T01:09:55.180Z,5.90
2023-09-02T01:12:28.545Z,5.57
2023-09-02T01:14:59.867Z,4.33
2023-09-02T01:17:31.797Z,5.97
2023-09-02T01:20:03.917Z,5.93
2023-09-02T01:22:59.611Z,6.17
2023-09-02T01:25:58.707Z,6.30
2023-09-02T01:28:38.101Z,5.30
2023-09-02T01:31:11.716Z,6.37
2023-09-02T01:33:44.222Z,6.03
2023-09-02T01:36:18.574Z,4.87
2023-09-02T01:38:50.215Z,6.23
2023-09-02T01:41:20.975Z,6.87
2023-09-02T01:43:55.006Z,5.40
2023-09-02T01:46:26.290Z,6.27
2023-09-02T01:48:57.112Z,8.00
2023-09-02T01:51:29.158Z,6.40
2023-09-02T01:53:59.999Z,6.60
2023-09-02T01:56:31.438Z,6.93
2023-09-02T01:59:04.621Z,7.40
2023-09-02T02:01:35.664Z,6.80
2023-09-02T02:04:14.596Z,7.90
2023-09-02T02:06:46.819Z,6.70
2023-09-02T02:09:23.972Z,6.93
2023-09-02T02:11:52.725Z,7.63
2023-09-02T02:14:25.846Z,6.93
2023-09-02T02:16:56.453Z,7.70
2023-09-02T02:19:26.995Z,6.10
2023-09-02T02:21:58.930Z,7.30
2023-09-02T02:24:29.951Z,7.23
2023-09-02T02:27:00.831Z,6.13
2023-09-02T02:29:33.999Z,7.47
2023-09-02T02:32:04.728Z,7.03
2023-09-02T02:34:36.046Z,7.50
2023-09-02T02:37:06.537Z,5.70
2023-09-02T02:39:37.878Z,6.20
2023-09-02T02:42:08.636Z,8.00
2023-09-02T02:44:41.825Z,6.50
2023-09-02T02:47:12.401Z,7.30
2023-09-02T02:49:43.105Z,6.00
2023-09-02T02:52:13.650Z,5.70
2023-09-02T02:54:44.534Z,7.10
2023-09-02T02:57:15.081Z,7.67
2023-09-02T02:59:48.521Z,6.40
2023-09-02T03:02:19.190Z,5.70
2023-09-02T03:04:49.938Z,6.43
2023-09-02T03:07:20.831Z,5.53
2023-09-02T03:09:51.554Z,6.13
2023-09-02T03:12:22.119Z,6.13
2023-09-02T03:14:56.378Z,6.40
2023-09-02T03:17:27.039Z,6.50
2023-09-02T03:19:57.654Z,6.60
2023-09-02T03:22:30.055Z,6.37
2023-09-02T03:25:00.687Z,6.80
2023-09-02T03:27:32.705Z,6.07
2023-09-02T03:30:06.000Z,6.30
2023-09-02T03:32:36.804Z,6.30
2023-09-02T03:35:09.237Z,5.40
2023-09-02T03:37:39.994Z,5.77
2023-09-02T03:40:12.277Z,6.87
2023-09-02T03:42:42.890Z,6.20
2023-09-02T03:45:16.208Z,6.30
2023-09-02T03:47:46.928Z,6.03
2023-09-02T03:50:17.553Z,7.23
2023-09-02T03:52:48.333Z,7.33
2023-09-02T03:55:18.992Z,7.93
2023-09-02T03:57:49.625Z,6.70
2023-09-02T04:00:24.553Z,6.50
2023-09-02T04:02:58.920Z,6.23
2023-09-02T04:05:29.529Z,5.27
2023-09-02T04:08:00.013Z,6.63
2023-09-02T04:10:32.321Z,5.93
2023-09-02T04:13:02.920Z,5.47
2023-09-02T04:15:36.587Z,6.90
2023-09-02T04:18:08.018Z,6.67
2023-09-02T04:20:39.676Z,5.90
2023-09-02T04:23:10.260Z,6.03
2023-09-02T04:25:49.020Z,6.90
2023-09-02T04:28:21.350Z,6.50
2023-09-02T04:30:57.985Z,6.53
2023-09-02T04:33:31.666Z,6.87
2023-09-02T04:36:04.975Z,7.00
2023-09-02T04:38:39.355Z,6.20
2023-09-02T04:41:10.499Z,6.00
2023-09-02T04:43:42.574Z,6.20
2023-09-02T04:46:17.277Z,6.93
2023-09-02T04:48:50.224Z,6.50
2023-09-02T04:51:23.686Z,7.00
2023-09-02T04:53:54.514Z,6.37
2023-09-02T04:56:25.539Z,7.20
2023-09-02T04:58:57.126Z,6.40
2023-09-02T05:01:31.889Z,6.33
2023-09-02T05:04:03.626Z,6.03
2023-09-02T05:06:34.377Z,6.70
2023-09-02T05:09:07.691Z,5.97
2023-09-02T05:11:38.227Z,5.40
2023-09-02T05:14:08.927Z,6.30
2023-09-02T05:16:42.043Z,5.80
2023-09-02T05:19:13.290Z,5.30
2023-09-02T05:21:43.988Z,5.60
2023-09-02T05:24:14.572Z,4.83
2023-09-02T05:26:46.279Z,6.10
2023-09-02T05:29:17.736Z,5.60
2023-09-02T05:31:50.939Z,6.23
2023-09-02T05:34:21.559Z,5.87
2023-09-02T05:36:52.097Z,6.33
2023-09-02T05:39:22.620Z,5.80
2023-09-02T05:41:53.144Z,6.60
2023-09-02T05:44:23.702Z,6.83
2023-09-02T05:46:56.813Z,5.80
2023-09-02T05:49:27.470Z,7.00
2023-09-02T05:51:57.924Z,5.73
2023-09-02T05:54:28.492Z,5.00
2023-09-02T05:56:58.966Z,5.30
2023-09-02T05:59:30.665Z,5.67
2023-09-02T06:02:04.084Z,4.97
2023-09-02T06:04:34.639Z,4.43
2023-09-02T06:07:05.154Z,4.67
2023-09-02T06:09:35.650Z,5.20
2023-09-02T06:12:06.521Z,4.47
2023-09-02T06:14:37.246Z,4.70
2023-09-02T06:17:10.430Z,4.70
2023-09-02T06:19:41.003Z,5.37
2023-09-02T06:22:11.472Z,3.87
2023-09-02T06:24:41.968Z,3.90
2023-09-02T06:27:12.453Z,4.20
2023-09-02T06:29:46.855Z,4.00
2023-09-02T06:32:20.004Z,4.10
2023-09-02T06:34:51.392Z,4.07
2023-09-02T06:37:21.970Z,3.60
2023-09-02T06:39:56.520Z,3.77
2023-09-02T06:42:27.676Z,3.50
2023-09-02T06:44:58.202Z,3.30
2023-09-02T06:47:31.348Z,3.10
2023-09-02T06:50:01.953Z,3.40
2023-09-02T06:52:32.496Z,3.60
2023-09-02T06:55:05.066Z,3.37
2023-09-02T06:57:35.570Z,4.10
2023-09-02T07:00:06.482Z,4.07
2023-09-02T07:02:39.675Z,2.97
2023-09-02T07:05:10.722Z,3.63
2023-09-02T07:07:42.339Z,3.10
2023-09-02T07:10:13.948Z,2.67
2023-09-02T07:12:44.476Z,3.87
2023-09-02T07:15:15.101Z,4.00
2023-09-02T07:17:48.346Z,3.70
2023-09-02T07:20:18.896Z,3.47
2023-09-02T07:22:49.396Z,3.97
2023-09-02T07:25:19.992Z,3.63
2023-09-02T07:27:50.509Z,3.17
2023-09-02T07:30:21.313Z,4.00
2023-09-02T07:32:54.472Z,3.70
2023-09-02T07:35:24.998Z,3.60
2023-09-02T07:37:55.533Z,3.83
2023-09-02T07:40:26.322Z,3.90
2023-09-02T07:42:56.861Z,4.07
2023-09-02T07:45:27.476Z,2.90
2023-09-02T07:48:00.701Z,3.43
2023-09-02T07:50:31.417Z,3.87
2023-09-02T07:53:02.002Z,3.67
2023-09-02T07:55:32.505Z,4.17
2023-09-02T07:58:03.197Z,4.00
2023-09-02T08:00:33.863Z,3.70
2023-09-02T08:03:07.904Z,3.90
2023-09-02T08:05:42.169Z,3.40
2023-09-02T08:08:12.684Z,3.23
2023-09-02T08:10:43.336Z,3.47
2023-09-02T08:13:14.435Z,3.57
2023-09-02T08:15:44.986Z,2.90
2023-09-02T08:18:18.234Z,4.63
2023-09-02T08:20:48.742Z,3.73
2023-09-02T08:23:19.532Z,3.63
2023-09-02T08:25:50.243Z,3.10
2023-09-02T08:28:20.753Z,3.23
2023-09-02T08:30:51.727Z,3.63
2023-09-02T08:33:24.868Z,3.37
2023-09-02T08:35:55.362Z,3.13
2023-09-02T08:38:25.924Z,3.47
2023-09-02T08:40:58.625Z,3.37
2023-09-02T08:43:31.333Z,3.10
2023-09-02T08:46:03.766Z,3.30
2023-09-02T08:48:40.156Z,3.30
2023-09-02T08:51:12.807Z,3.43
2023-09-02T08:53:44.533Z,3.00
2023-09-02T08:56:16.023Z,3.23
2023-09-02T08:58:47.018Z,3.37
2023-09-02T09:01:22.044Z,3.73
2023-09-02T09:03:59.232Z,3.00
2023-09-02T09:06:32.555Z,3.30
2023-09-02T09:09:03.850Z,3.17
2023-09-02T09:11:39.039Z,3.17
2023-09-02T09:14:13.655Z,3.30
2023-09-02T09:16:46.872Z,3.03
2023-09-02T09:19:20.580Z,2.90
2023-09-02T09:21:51.273Z,3.07
2023-09-02T09:24:21.809Z,3.80
2023-09-02T09:26:53.417Z,2.87
2023-09-02T09:29:24.514Z,2.57
2023-09-02T09:32:12.733Z,3.27
2023-09-02T09:34:47.438Z,3.27
2023-09-02T09:37:19.074Z,2.97
2023-09-02T09:39:52.905Z,3.10
2023-09-02T09:42:37.741Z,3.50
2023-09-02T09:45:10.325Z,3.80
2023-09-02T09:47:44.031Z,2.90
2023-09-02T09:50:21.816Z,3.50
2023-09-02T09:53:10.903Z,3.30
2023-09-02T09:55:42.013Z,3.13
2023-09-02T09:58:12.726Z,3.27
2023-09-02T10:00:43.257Z,3.57
2023-09-02T10:03:13.894Z,3.10
2023-09-02T10:05:47.350Z,2.83
2023-09-02T10:08:18.022Z,3.00
2023-09-02T10:10:48.559Z,3.07
2023-09-02T10:13:19.912Z,2.17
2023-09-02T10:15:51.861Z,2.60
2023-09-02T10:18:24.747Z,3.10
2023-09-02T10:20:58.584Z,2.03
2023-09-02T10:23:29.271Z,2.70
2023-09-02T10:26:09.052Z,2.70
2023-09-02T10:28:42.169Z,2.40
2023-09-02T10:31:18.821Z,2.57
2023-09-02T10:33:53.645Z,2.93
2023-09-02T10:36:30.816Z,2.37
2023-09-02T10:39:06.682Z,2.20
2023-09-02T10:41:38.197Z,2.80
2023-09-02T10:44:09.663Z,2.77
2023-09-02T10:46:41.751Z,2.33
2023-09-02T10:49:12.416Z,2.83
2023-09-02T10:51:46.575Z,2.20
2023-09-02T10:54:17.122Z,2.90
2023-09-02T10:56:47.622Z,2.70
2023-09-02T10:59:32.962Z,3.17
2023-09-02T11:02:03.620Z,2.23
2023-09-02T11:05:01.412Z,1.90
2023-09-02T11:07:35.326Z,2.60
2023-09-02T11:10:06.821Z,2.20
2023-09-02T11:12:37.708Z,2.17
2023-09-02T11:15:19.988Z,2.10
2023-09-02T11:17:50.682Z,2.10
2023-09-02T11:20:25.188Z,2.03
2023-09-02T11:23:01.013Z,2.50
2023-09-02T11:25:42.883Z,3.07
2023-09-02T11:28:29.868Z,2.20
2023-09-02T11:31:11.941Z,2.00
2023-09-02T11:33:43.825Z,2.50
2023-09-02T11:36:16.591Z,2.30
2023-09-02T11:38:49.791Z,2.03
2023-09-02T11:41:29.377Z,2.97
2023-09-02T11:43:59.913Z,2.30
2023-09-02T11:46:30.468Z,2.63
2023-09-02T11:49:01.053Z,2.50
2023-09-02T11:51:31.710Z,2.20
2023-09-02T11:54:05.882Z,2.23
2023-09-02T11:56:37.748Z,2.60
2023-09-02T11:59:08.309Z,2.40
2023-09-02T12:01:38.830Z,2.20
2023-09-02T12:04:09.557Z,2.77
2023-09-02T12:06:40.079Z,2.70
2023-09-02T12:09:13.241Z,2.33
2023-09-02T12:11:44.427Z,2.93
2023-09-02T12:14:15.039Z,3.40
2023-09-02T12:16:45.620Z,2.23
2023-09-02T12:19:16.830Z,2.47
2023-09-02T12:21:47.445Z,3.03
2023-09-02T12:24:21.247Z,2.13
2023-09-02T12:26:52.682Z,2.50
2023-09-02T12:29:24.809Z,2.47
2023-09-02T12:31:56.270Z,3.20
2023-09-02T12:34:27.282Z,2.80
2023-09-02T12:36:57.756Z,2.57
2023-09-02T12:39:31.738Z,3.07
2023-09-02T12:42:02.278Z,2.80
2023-09-02T12:44:32.781Z,2.40
2023-09-02T12:47:04.008Z,2.60
2023-09-02T12:49:35.476Z,2.63
2023-09-02T12:52:06.236Z,2.40
2023-09-02T12:54:39.339Z,2.10
2023-09-02T12:57:09.826Z,2.77
2023-09-02T12:59:40.385Z,2.30
2023-09-02T13:02:10.995Z,2.37
2023-09-02T13:04:41.551Z,2.13
2023-09-02T13:07:12.278Z,2.67
2023-09-02T13:09:45.362Z,2.20
2023-09-02T13:12:16.462Z,2.00
2023-09-02T13:14:47.230Z,2.30
2023-09-02T13:17:19.209Z,1.83
2023-09-02T13:19:50.099Z,2.63
2023-09-02T13:22:20.765Z,3.00
2023-09-02T13:24:55.687Z,2.70
2023-09-02T13:27:29.427Z,2.47
2023-09-02T13:30:00.302Z,2.10
2023-09-02T13:32:33.212Z,2.20
2023-09-02T13:35:16.102Z,2.90
2023-09-02T13:37:48.684Z,2.50
2023-09-02T13:40:46.170Z,2.57
2023-09-02T13:43:21.803Z,2.70
2023-09-02T13:45:53.550Z,2.50
2023-09-02T13:48:26.599Z,2.70
2023-09-02T13:50:58.627Z,2.70
2023-09-02T13:53:29.153Z,2.50
2023-09-02T13:56:02.875Z,2.40
2023-09-02T13:58:39.144Z,2.43
2023-09-02T14:01:09.674Z,2.20
2023-09-02T14:03:40.962Z,2.40
2023-09-02T14:06:11.653Z,2.90
2023-09-02T14:08:45.759Z,2.90
2023-09-02T14:11:20.756Z,2.33
2023-09-02T14:13:52.571Z,3.10
2023-09-02T14:16:23.399Z,2.50
2023-09-02T14:18:54.081Z,2.13
2023-09-02T14:21:24.529Z,2.43
2023-09-02T14:23:55.039Z,2.30
2023-09-02T14:26:31.314Z,2.70
2023-09-02T14:29:01.970Z,2.30
2023-09-02T14:31:33.256Z,2.40
2023-09-02T14:34:03.737Z,3.10
2023-09-02T14:36:34.271Z,2.60
2023-09-02T14:39:04.820Z,3.20
2023-09-02T14:41:37.921Z,2.17
2023-09-02T14:44:08.465Z,2.53
2023-09-02T14:46:39.094Z,2.47
2023-09-02T14:49:09.672Z,2.53
2023-09-02T14:51:40.157Z,2.43
2023-09-02T14:54:10.888Z,2.20
2023-09-02T14:56:47.013Z,2.77
2023-09-02T14:59:21.787Z,2.43
2023-09-02T15:01:53.422Z,3.10
2023-09-02T15:04:24.662Z,3.00
2023-09-02T15:06:55.604Z,3.43
2023-09-02T15:09:32.074Z,2.70
2023-09-02T15:12:05.701Z,2.60
2023-09-02T15:14:37.992Z,2.37
2023-09-02T15:17:08.767Z,2.37
2023-09-02T15:19:39.405Z,2.43
2023-09-02T15:22:09.922Z,3.00
2023-09-02T15:24:40.485Z,2.60
2023-09-02T15:27:14.172Z,2.50
2023-09-02T15:29:46.233Z,2.60
2023-09-02T15:32:16.703Z,2.80
2023-09-02T15:34:51.025Z,2.80
2023-09-02T15:37:24.973Z,2.33
2023-09-02T15:40:01.815Z,2.80
2023-09-02T15:42:37.038Z,2.50
2023-09-02T15:45:08.113Z,2.33
2023-09-02T15:47:40.070Z,2.73
2023-09-02T15:50:11.615Z,2.83
2023-09-02T15:52:42.139Z,3.00
2023-09-02T15:55:12.957Z,2.50
2023-09-02T15:57:46.104Z,2.90
2023-09-02T16:00:17.148Z,2.57
2023-09-02T16:02:47.754Z,2.30
2023-09-02T16:05:18.781Z,2.67
2023-09-02T16:07:51.305Z,2.30
2023-09-02T16:10:22.170Z,2.23
2023-09-02T16:12:55.247Z,2.70
2023-09-02T16:15:26.797Z,2.60
2023-09-02T16:17:57.423Z,2.10
2023-09-02T16:20:28.016Z,2.77
2023-09-02T16:22:58.506Z,2.70
2023-09-02T16:25:29.038Z,3.10
2023-09-02T16:28:02.125Z,2.60
2023-09-02T16:30:32.720Z,3.40
2023-09-02T16:33:04.695Z,2.90
2023-09-02T16:35:36.517Z,3.07
2023-09-02T16:38:07.034Z,2.93
2023-09-02T16:40:37.621Z,2.43
2023-09-02T16:43:10.947Z,2.07
2023-09-02T16:45:42.832Z,2.77
2023-09-02T16:48:16.777Z,3.17
2023-09-02T16:50:50.441Z,2.70
2023-09-02T16:53:21.549Z,2.97
2023-09-02T16:56:03.502Z,2.57
2023-09-02T16:58:37.876Z,2.60
2023-09-02T17:01:09.562Z,2.73
2023-09-02T17:03:40.345Z,2.83
2023-09-02T17:06:10.858Z,2.37
2023-09-02T17:08:41.489Z,2.47
2023-09-02T17:11:12.023Z,2.57
2023-09-02T17:13:45.136Z,3.07
2023-09-02T17:16:16.014Z,2.93
2023-09-02T17:18:46.802Z,2.90
2023-09-02T17:21:18.799Z,3.87
2023-09-02T17:23:49.403Z,2.93
2023-09-02T17:26:20.066Z,2.83
2023-09-02T17:28:53.296Z,3.40
2023-09-02T17:31:23.970Z,3.10
2023-09-02T17:33:54.511Z,2.50
2023-09-02T17:36:25.260Z,2.67
2023-09-02T17:38:55.814Z,3.40
2023-09-02T17:41:26.470Z,3.07
2023-09-02T17:43:59.538Z,3.07
2023-09-02T17:46:30.239Z,2.57
2023-09-02T17:49:00.747Z,2.77
2023-09-02T17:51:31.364Z,3.27
2023-09-02T17:54:01.854Z,3.20
2023-09-02T17:56:32.399Z,2.97
2023-09-02T17:59:05.511Z,3.23
2023-09-02T18:01:36.018Z,3.43
2023-09-02T18:04:06.592Z,3.23
2023-09-02T18:06:37.201Z,3.07
2023-09-02T18:09:08.132Z,2.87
2023-09-02T18:11:38.692Z,3.20
2023-09-02T18:14:12.010Z,3.17
2023-09-02T18:16:42.554Z,2.77
2023-09-02T18:19:13.108Z,4.00
2023-09-02T18:21:43.710Z,3.13
2023-09-02T18:24:14.391Z,3.40
2023-09-02T18:26:44.910Z,4.00
2023-09-02T18:29:18.196Z,4.10
2023-09-02T18:31:48.687Z,4.77
2023-09-02T18:34:19.211Z,7.10
2023-09-02T18:36:49.719Z,5.00
2023-09-02T18:39:22.291Z,4.30
2023-09-02T18:41:52.851Z,4.40
2023-09-02T18:44:25.940Z,4.40
2023-09-02T18:46:56.786Z,3.80
2023-09-02T18:49:27.377Z,3.97
2023-09-02T18:51:57.962Z,4.30
2023-09-02T18:54:28.667Z,3.80
2023-09-02T18:56:59.308Z,4.50
2023-09-02T18:59:32.483Z,5.03
2023-09-02T19:02:03.049Z,5.60
2023-09-02T19:04:33.633Z,4.60
2023-09-02T19:07:04.138Z,5.67
2023-09-02T19:09:35.233Z,4.90
2023-09-02T19:12:05.907Z,6.27
2023-09-02T19:14:39.157Z,6.10
2023-09-02T19:17:09.757Z,6.03
2023-09-02T19:19:40.335Z,9.40
2023-09-02T19:22:10.921Z,7.00
2023-09-02T19:24:41.646Z,6.63
2023-09-02T19:27:12.317Z,6.97
2023-09-02T19:29:48.454Z,7.53
2023-09-02T19:32:19.046Z,7.00
2023-09-02T19:34:49.765Z,7.47
2023-09-02T19:37:20.471Z,6.93
2023-09-02T19:39:59.356Z,7.37
2023-09-02T19:42:30.050Z,7.00
2023-09-02T19:45:03.315Z,7.20
2023-09-02T19:47:34.123Z,7.00
2023-09-02T19:50:05.501Z,10.80
2023-09-02T19:52:36.771Z,8.63
2023-09-02T19:55:08.172Z,7.87
2023-09-02T19:57:38.824Z,10.67
2023-09-02T20:00:13.912Z,8.27
2023-09-02T20:02:45.054Z,8.27
2023-09-02T20:05:15.682Z,7.50
2023-09-02T20:07:46.224Z,7.17
2023-09-02T20:10:17.522Z,7.60
2023-09-02T20:12:49.765Z,8.23
2023-09-02T20:15:22.952Z,9.50
2023-09-02T20:17:53.740Z,9.50
2023-09-02T20:20:25.470Z,9.83
2023-09-02T20:22:56.340Z,7.40
2023-09-02T20:25:26.939Z,7.90
2023-09-02T20:27:57.442Z,7.73
2023-09-02T20:30:30.552Z,6.90
2023-09-02T20:33:01.051Z,8.60
2023-09-02T20:35:31.584Z,7.13
2023-09-02T20:38:02.722Z,6.17
2023-09-02T20:40:38.433Z,7.70
2023-09-02T20:43:10.357Z,7.00
2023-09-02T20:45:47.596Z,8.10
2023-09-02T20:48:18.468Z,9.73
2023-09-02T20:50:49.868Z,8.93
2023-09-02T20:53:20.466Z,7.70
2023-09-02T20:55:50.998Z,7.80
2023-09-02T20:58:22.012Z,7.03
2023-09-02T21:00:55.273Z,6.00
2023-09-02T21:03:26.087Z,6.80
2023-09-02T21:05:56.621Z,8.00
2023-09-02T21:08:27.208Z,7.63
2023-09-02T21:11:09.801Z,7.40
2023-09-02T21:13:41.409Z,7.67
2023-09-02T21:16:19.558Z,8.10
2023-09-02T21:18:50.629Z,8.67
2023-09-02T21:21:23.696Z,8.33
2023-09-02T21:23:56.338Z,7.80
2023-09-02T21:26:27.632Z,7.00
2023-09-02T21:28:58.400Z,8.10
2023-09-02T21:31:32.081Z,6.70
2023-09-02T21:34:02.792Z,8.07
2023-09-02T21:36:33.778Z,7.87
2023-09-02T21:39:04.659Z,6.93
2023-09-02T21:41:35.402Z,7.57
2023-09-02T21:44:06.179Z,7.57
2023-09-02T21:46:40.129Z,7.23
2023-09-02T21:49:10.929Z,7.77
2023-09-02T21:51:41.674Z,7.60
2023-09-02T21:54:12.970Z,7.83
2023-09-02T21:56:43.725Z,7.47
2023-09-02T21:59:15.306Z,7.90
2023-09-02T22:01:48.885Z,8.80
2023-09-02T22:04:19.894Z,8.80
2023-09-02T22:06:50.713Z,7.90
2023-09-02T22:09:22.250Z,8.00
2023-09-02T22:11:52.996Z,7.30
2023-09-02T22:14:23.718Z,8.70
2023-09-02T22:16:56.939Z,7.63
2023-09-02T22:19:27.438Z,9.17
2023-09-02T22:21:59.697Z,8.70
2023-09-02T22:24:30.396Z,7.97
2023-09-02T22:27:01.271Z,8.80
2023-09-02T22:29:31.853Z,8.50
2023-09-02T22:32:04.946Z,8.30
2023-09-02T22:34:35.477Z,8.83
2023-09-02T22:37:06.028Z,9.47
2023-09-02T22:39:36.528Z,8.83
2023-09-02T22:42:07.214Z,10.67
2023-09-02T22:44:37.710Z,8.87
2023-09-02T22:47:10.890Z,9.73
2023-09-02T22:49:41.448Z,9.60
2023-09-02T22:52:11.974Z,9.70
2023-09-02T22:54:42.589Z,13.60
2023-09-02T22:57:13.159Z,9.70
2023-09-02T22:59:44.284Z,9.63
2023-09-02T23:02:18.144Z,10.27
2023-09-02T23:04:51.747Z,10.07
2023-09-02T23:07:23.843Z,11.23
2023-09-02T23:09:54.371Z,12.07
2023-09-02T23:12:25.074Z,10.43
2023-09-02T23:14:55.877Z,9.97
2023-09-02T23:17:29.110Z,11.43
2023-09-02T23:20:01.672Z,8.87
2023-09-02T23:22:32.666Z,9.97
2023-09-02T23:25:03.947Z,9.70
2023-09-02T23:27:34.606Z,8.47
2023-09-02T23:30:06.442Z,10.20
2023-09-02T23:32:40.293Z,9.40
2023-09-02T23:35:11.601Z,10.30
2023-09-02T23:37:42.097Z,9.07
2023-09-02T23:40:16.521Z,8.07
2023-09-02T23:42:47.289Z,10.10
2023-09-02T23:45:17.953Z,9.30
2023-09-02T23:47:51.205Z,9.83
2023-09-02T23:50:21.853Z,9.13
2023-09-02T23:52:52.488Z,8.83
2023-09-02T23:55:23.102Z,9.80
2023-09-02T23:57:55.844Z,8.83
